createdAt,value
2023-04-28T00:01:10.222Z,55.81
2023-04-28T00:06:13.952Z,55.37
2023-04-28T00:11:17.450Z,55.71
2023-04-28T00:16:23.745Z,55.96
2023-04-28T00:21:28.999Z,55.88
2023-04-28T00:26:32.501Z,57.07
2023-04-28T00:31:37.837Z,56.53
2023-04-28T00:36:41.394Z,57.38
2023-04-28T00:41:45.838Z,56.84
2023-04-28T00:46:52.195Z,57.40
2023-04-28T00:51:56.349Z,58.17
2023-04-28T00:57:00.960Z,58.54
2023-04-28T01:02:07.977Z,58.86
2023-04-28T01:07:13.100Z,58.48
2023-04-28T01:12:17.951Z,58.96
2023-04-28T01:17:23.232Z,58.88
2023-04-28T01:22:26.844Z,58.87
2023-04-28T01:27:36.778Z,59.48
2023-04-28T01:32:40.590Z,59.24
2023-04-28T01:37:44.903Z,59.54
2023-04-28T01:42:49.813Z,59.32
2023-04-28T01:47:53.029Z,59.67
2023-04-28T01:52:57.802Z,60.71
2023-04-28T01:58:04.289Z,60.31
2023-04-28T02:03:07.748Z,60.25
2023-04-28T02:08:12.479Z,60.53
2023-04-28T02:13:18.674Z,60.40
2023-04-28T02:18:22.679Z,60.40
2023-04-28T02:23:26.320Z,60.10
2023-04-28T02:28:31.393Z,61.37
2023-04-28T02:33:35.398Z,61.11
2023-04-28T02:38:38.945Z,61.59
2023-04-28T02:43:44.422Z,61.34
2023-04-28T02:48:48.111Z,61.37
2023-04-28T02:53:52.048Z,61.52
2023-04-28T02:58:57.085Z,60.24
2023-04-28T03:04:00.764Z,60.78
2023-04-28T03:09:05.007Z,59.93
2023-04-28T03:14:09.827Z,60.89
2023-04-28T03:19:13.612Z,59.96
2023-04-28T03:24:17.751Z,60.86
2023-04-28T03:29:25.718Z,61.28
2023-04-28T03:34:29.317Z,61.32
2023-04-28T03:39:34.820Z,61.33
2023-04-28T03:44:40.378Z,62.16
2023-04-28T03:49:44.226Z,61.72
2023-04-28T03:54:47.915Z,62.28
2023-04-28T03:59:53.177Z,61.86
2023-04-28T04:04:57.044Z,61.14
2023-04-28T04:10:03.916Z,62.05
2023-04-28T04:15:11.318Z,61.70
2023-04-28T04:20:15.036Z,61.54
2023-04-28T04:25:23.512Z,61.38
2023-04-28T04:30:28.759Z,61.14
2023-04-28T04:35:34.413Z,60.34
2023-04-28T04:40:38.398Z,60.58
2023-04-28T04:45:43.596Z,60.44
2023-04-28T04:50:47.105Z,60.10
2023-04-28T04:55:52.775Z,60.35
2023-04-28T05:00:57.968Z,60.43
2023-04-28T05:06:04.233Z,60.68
2023-04-28T05:11:10.257Z,59.65
2023-04-28T05:16:27.035Z,59.99
2023-04-28T05:21:30.574Z,59.73
2023-04-28T05:26:37.833Z,59.74
2023-04-28T05:31:55.501Z,59.14
2023-04-28T05:36:59.456Z,58.47
2023-04-28T05:42:07.352Z,57.09
2023-04-28T05:47:15.106Z,56.97
2023-04-28T05:52:21.342Z,56.58
2023-04-28T05:57:24.687Z,55.89
2023-04-28T06:02:33.931Z,54.70
2023-04-28T06:07:37.557Z,50.33
2023-04-28T06:12:40.900Z,47.46
2023-04-28T06:17:45.959Z,46.49
2023-04-28T06:22:49.451Z,46.44
2023-04-28T06:27:53.606Z,44.73
2023-04-28T06:33:00.305Z,43.34
2023-04-28T06:38:04.927Z,44.36
2023-04-28T06:43:08.465Z,44.62
2023-04-28T06:48:15.520Z,45.09
2023-04-28T06:53:23.141Z,45.81
2023-04-28T06:58:27.046Z,45.61
2023-04-28T07:03:35.100Z,46.13
2023-04-28T07:08:39.186Z,46.78
2023-04-28T07:13:42.839Z,46.50
2023-04-28T07:18:47.820Z,47.23
2023-04-28T07:23:51.937Z,47.28
2023-04-28T07:28:55.417Z,47.47
2023-04-28T07:34:13.295Z,47.65
2023-04-28T07:39:17.028Z,46.79
2023-04-28T07:44:20.779Z,46.39
2023-04-28T07:49:26.362Z,45.83
2023-04-28T07:54:29.666Z,45.77
2023-04-28T07:59:33.690Z,45.38
2023-04-28T08:04:40.120Z,44.56
2023-04-28T08:09:47.367Z,45.30
2023-04-28T08:14:50.953Z,44.77
2023-04-28T08:19:56.279Z,44.78
2023-04-28T08:25:00.212Z,44.85
2023-04-28T08:30:04.689Z,45.21
2023-04-28T08:35:11.941Z,45.17
2023-04-28T08:40:15.599Z,45.37
2023-04-28T08:45:18.970Z,45.37
2023-04-28T08:50:25.005Z,46.22
2023-04-28T08:55:28.911Z,46.81
2023-04-28T09:00:33.355Z,47.71
2023-04-28T09:05:38.243Z,49.45
2023-04-28T09:10:43.201Z,49.48
2023-04-28T09:15:46.555Z,50.10
2023-04-28T09:20:52.268Z,50.85
2023-04-28T09:26:01.078Z,52.43
2023-04-28T09:31:05.145Z,53.68
2023-04-28T09:36:10.770Z,54.54
2023-04-28T09:41:14.101Z,54.73
2023-04-28T09:46:30.574Z,56.54
2023-04-28T09:51:35.899Z,56.78
2023-04-28T09:56:41.391Z,57.92
2023-04-28T10:01:46.881Z,59.22
2023-04-28T10:06:52.271Z,59.16
2023-04-28T10:11:56.156Z,59.85
2023-04-28T10:17:00.953Z,59.50
2023-04-28T10:22:22.772Z,61.88
2023-04-28T10:27:32.117Z,62.50
2023-04-28T10:32:35.376Z,62.75
2023-04-28T10:38:10.450Z,63.67
2023-04-28T10:43:15.153Z,63.96
2023-04-28T10:48:18.461Z,65.19
2023-04-28T10:53:23.430Z,65.11
2023-04-28T10:58:42.303Z,65.43
2023-04-28T11:03:51.972Z,66.66
2023-04-28T11:09:00.693Z,67.52
2023-04-28T11:14:32.896Z,69.76
2023-04-28T11:19:38.223Z,70.03
2023-04-28T11:24:56.471Z,70.62
2023-04-28T11:30:02.343Z,71.15
2023-04-28T11:35:10.139Z,72.27
2023-04-28T11:40:19.438Z,72.74
2023-04-28T11:45:23.148Z,72.60
2023-04-28T11:50:37.342Z,73.49
2023-04-28T11:55:42.475Z,73.14
2023-04-28T12:00:47.555Z,72.58
2023-04-28T12:05:51.731Z,72.33
2023-04-28T12:16:39.467Z,70.94
2023-04-28T12:21:44.016Z,71.33
2023-04-28T12:26:48.206Z,69.77
2023-04-28T12:31:54.161Z,70.57
2023-04-28T12:36:57.868Z,69.95
2023-04-28T12:42:03.092Z,68.66
2023-04-28T12:47:09.323Z,68.82
2023-04-28T12:52:12.784Z,69.18
2023-04-28T12:57:17.015Z,69.47
2023-04-28T13:02:22.038Z,69.21
2023-04-28T13:07:26.756Z,69.50
2023-04-28T13:12:30.374Z,69.68
2023-04-28T13:17:35.520Z,69.32
2023-04-28T13:22:38.899Z,69.75
2023-04-28T13:27:43.489Z,69.28
2023-04-28T13:32:48.581Z,68.67
2023-04-28T13:37:56.782Z,68.93
2023-04-28T13:43:00.715Z,69.55
2023-04-28T13:48:06.038Z,69.85
2023-04-28T13:53:09.331Z,69.33
2023-04-28T13:58:12.573Z,68.88
2023-04-28T14:03:17.431Z,68.45
2023-04-28T14:08:23.255Z,68.48
2023-04-28T14:13:27.100Z,68.02
2023-04-28T14:18:33.853Z,68.08
2023-04-28T14:23:37.954Z,67.95
2023-04-28T14:28:45.068Z,68.44
2023-04-28T14:33:50.150Z,68.65
2023-04-28T14:38:53.514Z,68.35
2023-04-28T14:43:56.882Z,68.06
2023-04-28T14:49:02.656Z,68.08
2023-04-28T14:54:06.577Z,67.76
2023-04-28T14:59:10.506Z,68.00
2023-04-28T15:04:16.954Z,68.09
2023-04-28T15:09:20.629Z,68.25
2023-04-28T15:14:23.790Z,68.26
2023-04-28T15:19:28.412Z,68.87
2023-04-28T15:24:35.775Z,68.74
2023-04-28T15:29:39.554Z,68.57
2023-04-28T15:34:44.511Z,68.99
2023-04-28T15:39:47.848Z,69.10
2023-04-28T15:44:51.590Z,69.22
2023-04-28T15:49:56.546Z,69.30
2023-04-28T15:55:00.985Z,69.59
2023-04-28T16:00:04.803Z,70.35
2023-04-28T16:05:20.107Z,70.42
2023-04-28T16:10:23.412Z,70.17
2023-04-28T16:15:26.998Z,70.87
2023-04-28T16:20:31.739Z,70.99
2023-04-28T16:25:35.439Z,71.47
2023-04-28T16:30:38.868Z,71.77
2023-04-28T16:35:44.783Z,71.61
2023-04-28T16:40:47.978Z,71.65
2023-04-28T16:45:51.157Z,72.07
2023-04-28T16:50:56.865Z,72.07
2023-04-28T16:55:59.967Z,72.14
2023-04-28T17:01:06.795Z,72.91
2023-04-28T17:06:12.454Z,72.42
2023-04-28T17:11:18.908Z,72.78
2023-04-28T17:16:22.416Z,72.27
2023-04-28T17:21:29.298Z,71.99
2023-04-28T17:26:33.763Z,71.96
2023-04-28T17:31:38.939Z,71.58
2023-04-28T17:36:44.460Z,72.39
2023-04-28T17:41:47.804Z,72.34
2023-04-28T17:46:52.231Z,72.49
2023-04-28T17:52:02.446Z,73.35
2023-04-28T17:57:06.172Z,73.11
2023-04-28T18:02:11.290Z,73.89
2023-04-28T18:07:16.586Z,75.03
2023-04-28T18:12:19.874Z,75.42
2023-04-28T18:17:23.387Z,77.01
2023-04-28T18:22:28.134Z,77.56
2023-04-28T18:27:34.308Z,78.76
2023-04-28T18:32:37.733Z,78.97
2023-04-28T18:37:46.166Z,81.27
2023-04-28T18:42:49.796Z,81.60
2023-04-28T18:47:53.081Z,82.00
2023-04-28T18:52:57.889Z,83.00
2023-04-28T18:58:02.382Z,84.31
2023-04-28T19:03:05.910Z,85.13
2023-04-28T19:08:12.006Z,86.51
2023-04-28T19:13:15.465Z,87.44
2023-04-28T19:18:19.479Z,88.28
2023-04-28T19:23:24.365Z,89.80
2023-04-28T19:28:29.297Z,90.10
2023-04-28T19:33:32.954Z,90.39
2023-04-28T19:38:40.457Z,92.11
2023-04-28T19:43:44.277Z,92.70
2023-04-28T19:48:47.762Z,93.00
2023-04-28T19:53:52.640Z,93.38
2023-04-28T19:58:55.980Z,93.83
2023-04-28T20:04:00.583Z,94.32
2023-04-28T20:09:06.045Z,95.56
2023-04-28T20:14:09.768Z,96.44
2023-04-28T20:19:12.907Z,97.03
2023-04-28T20:24:17.494Z,98.62
2023-04-28T20:29:20.813Z,98.82
2023-04-28T20:34:24.091Z,99.08
2023-04-28T20:39:29.516Z,100.00
2023-04-28T20:44:32.861Z,100.00
2023-04-28T20:49:36.561Z,100.00
2023-04-28T20:54:43.627Z,100.00
2023-04-28T20:59:46.867Z,100.00
2023-04-28T21:04:50.304Z,100.00
2023-04-28T21:09:54.902Z,100.00
2023-04-28T21:14:59.642Z,100.00
2023-04-28T21:20:03.601Z,100.00
2023-04-28T21:25:09.569Z,100.00
2023-04-28T21:30:14.762Z,100.00
2023-04-28T21:35:18.227Z,100.00
2023-04-28T21:40:23.121Z,100.00
2023-04-28T21:45:26.668Z,100.00
2023-04-28T21:50:29.944Z,100.00
2023-04-28T21:55:34.540Z,100.00
2023-04-28T22:00:40.978Z,100.00
2023-04-28T22:05:45.474Z,100.00
2023-04-28T22:10:50.086Z,100.00
2023-04-28T22:15:53.838Z,100.00
2023-04-28T22:20:57.116Z,100.00
2023-04-28T22:26:01.895Z,100.00
2023-04-28T22:31:05.219Z,100.00
2023-04-28T22:36:09.028Z,100.00
2023-04-28T22:41:13.617Z,100.00
2023-04-28T22:46:16.752Z,100.00
2023-04-28T22:51:20.429Z,100.00
2023-04-28T22:56:24.940Z,100.00
2023-04-28T23:01:28.209Z,100.00
2023-04-28T23:06:32.211Z,100.00
2023-04-28T23:11:36.735Z,100.00
2023-04-28T23:16:40.192Z,100.00
2023-04-28T23:21:43.346Z,100.00
2023-04-28T23:26:48.078Z,100.00
2023-04-28T23:31:54.684Z,100.00
2023-04-28T23:36:58.421Z,100.00
2023-04-28T23:42:03.106Z,100.00
2023-04-28T23:47:06.770Z,100.00
2023-04-28T23:52:09.971Z,100.00
2023-04-28T23:57:14.511Z,100.00
